createdAt,value
2019-02-06T00:01:31.683Z,46.07
2019-02-06T00:04:02.596Z,46.20
2019-02-06T00:06:34.861Z,45.60
2019-02-06T00:09:14.004Z,44.77
2019-02-06T00:11:44.647Z,44.93
2019-02-06T00:14:15.321Z,44.08
2019-02-06T00:16:45.889Z,47.23
2019-02-06T00:19:16.483Z,45.28
2019-02-06T00:21:47.573Z,45.77
2019-02-06T00:24:18.219Z,45.43
2019-02-06T00:26:49.000Z,45.40
2019-02-06T00:29:19.626Z,44.93
2019-02-06T00:31:50.163Z,44.42
2019-02-06T00:34:21.699Z,43.70
2019-02-06T00:36:53.091Z,44.33
2019-02-06T00:39:23.754Z,44.10
2019-02-06T00:41:54.238Z,44.37
2019-02-06T00:44:24.861Z,44.80
2019-02-06T00:46:55.798Z,44.33
2019-02-06T00:49:26.810Z,43.33
2019-02-06T00:51:57.403Z,41.63
2019-02-06T00:54:27.744Z,43.20
2019-02-06T00:56:59.675Z,43.93
2019-02-06T00:59:30.556Z,42.53
2019-02-06T01:02:02.455Z,42.57
2019-02-06T01:04:33.118Z,43.30
2019-02-06T01:07:03.885Z,42.30
2019-02-06T01:09:35.594Z,42.13
2019-02-06T01:12:06.222Z,43.30
2019-02-06T01:14:39.427Z,42.17
2019-02-06T01:17:10.086Z,42.93
2019-02-06T01:19:40.881Z,43.07
2019-02-06T01:22:11.507Z,45.38
2019-02-06T01:24:42.427Z,44.50
2019-02-06T01:27:13.396Z,44.70
2019-02-06T01:29:43.897Z,44.60
2019-02-06T01:32:16.447Z,43.38
2019-02-06T01:34:46.994Z,44.37
2019-02-06T01:37:17.596Z,44.50
2019-02-06T01:39:48.303Z,45.00
2019-02-06T01:42:18.879Z,46.02
2019-02-06T01:44:49.776Z,44.47
2019-02-06T01:47:20.246Z,47.23
2019-02-06T01:49:50.880Z,45.40
2019-02-06T01:52:21.477Z,47.30
2019-02-06T01:54:54.475Z,47.43
2019-02-06T01:57:25.593Z,45.50
2019-02-06T01:59:56.175Z,47.43
2019-02-06T02:02:27.128Z,46.93
2019-02-06T02:04:57.592Z,47.45
2019-02-06T02:07:28.246Z,49.33
2019-02-06T02:09:58.831Z,47.25
2019-02-06T02:12:30.853Z,47.80
2019-02-06T02:15:03.739Z,48.10
2019-02-06T02:17:35.233Z,47.23
2019-02-06T02:20:08.822Z,49.33
2019-02-06T02:22:39.344Z,47.33
2019-02-06T02:25:09.928Z,47.40
2019-02-06T02:27:40.252Z,47.33
2019-02-06T02:30:13.523Z,48.57
2019-02-06T02:32:44.590Z,49.37
2019-02-06T02:35:15.322Z,49.53
2019-02-06T02:37:45.758Z,49.18
2019-02-06T02:40:16.541Z,49.25
2019-02-06T02:42:47.011Z,50.65
2019-02-06T02:45:18.895Z,51.02
2019-02-06T02:47:50.926Z,51.77
2019-02-06T02:50:21.410Z,52.10
2019-02-06T02:52:51.931Z,51.93
2019-02-06T02:55:22.689Z,51.20
2019-02-06T02:57:54.593Z,52.70
2019-02-06T03:00:31.516Z,50.77
2019-02-06T03:03:14.473Z,51.87
2019-02-06T03:05:44.928Z,52.90
2019-02-06T03:08:15.400Z,50.40
2019-02-06T03:10:47.193Z,49.60
2019-02-06T03:13:19.243Z,50.30
2019-02-06T03:15:49.658Z,50.73
2019-02-06T03:18:20.579Z,50.50
2019-02-06T03:20:51.064Z,51.10
2019-02-06T03:23:21.812Z,52.03
2019-02-06T03:25:52.176Z,50.40
2019-02-06T03:28:22.780Z,52.25
2019-02-06T03:30:53.492Z,50.60
2019-02-06T03:33:23.873Z,50.20
2019-02-06T03:35:54.476Z,50.23
2019-02-06T03:38:25.300Z,50.50
2019-02-06T03:40:55.732Z,50.57
2019-02-06T03:43:26.063Z,49.27
2019-02-06T03:45:56.774Z,50.53
2019-02-06T03:48:27.214Z,50.77
2019-02-06T03:50:57.598Z,53.13
2019-02-06T03:53:28.249Z,49.63
2019-02-06T03:55:58.945Z,50.17
2019-02-06T03:58:32.431Z,51.40
2019-02-06T04:01:03.542Z,50.50
2019-02-06T04:03:35.006Z,49.73
2019-02-06T04:06:06.622Z,49.60
2019-02-06T04:08:37.200Z,50.80
2019-02-06T04:11:09.600Z,50.27
2019-02-06T04:13:40.436Z,49.30
2019-02-06T04:16:12.390Z,49.67
2019-02-06T04:18:43.410Z,50.37
2019-02-06T04:21:14.124Z,49.75
2019-02-06T04:23:44.812Z,49.88
2019-02-06T04:26:16.427Z,48.93
2019-02-06T04:28:46.823Z,48.80
2019-02-06T04:31:17.709Z,48.00
2019-02-06T04:33:48.059Z,50.37
2019-02-06T04:36:19.162Z,47.83
2019-02-06T04:38:49.705Z,48.10
2019-02-06T04:41:21.666Z,48.73
2019-02-06T04:43:52.113Z,49.53
2019-02-06T04:46:22.462Z,49.33
2019-02-06T04:48:53.612Z,48.10
2019-02-06T04:51:23.971Z,48.30
2019-02-06T04:53:54.615Z,48.17
2019-02-06T04:56:25.130Z,48.97
2019-02-06T04:58:55.892Z,49.80
2019-02-06T05:01:28.394Z,48.57
2019-02-06T05:03:58.826Z,48.67
2019-02-06T05:06:29.897Z,50.40
2019-02-06T05:09:00.666Z,49.90
2019-02-06T05:11:39.096Z,50.37
2019-02-06T05:14:10.577Z,49.15
2019-02-06T05:16:42.011Z,50.07
2019-02-06T05:19:13.362Z,49.13
2019-02-06T05:21:43.704Z,50.73
2019-02-06T05:24:14.436Z,50.45
2019-02-06T05:26:45.973Z,49.47
2019-02-06T05:29:16.659Z,49.73
2019-02-06T05:31:47.353Z,50.37
2019-02-06T05:34:17.978Z,50.20
2019-02-06T05:36:50.953Z,50.33
2019-02-06T05:39:20.503Z,51.42
2019-02-06T05:41:51.145Z,51.50
2019-02-06T05:44:23.106Z,50.10
2019-02-06T05:46:53.751Z,47.70
2019-02-06T05:49:26.316Z,49.43
2019-02-06T05:51:56.812Z,47.93
2019-02-06T05:54:27.499Z,49.67
2019-02-06T05:56:58.055Z,49.07
2019-02-06T05:59:28.710Z,47.87
2019-02-06T06:01:59.419Z,48.90
2019-02-06T06:04:30.082Z,49.43
2019-02-06T06:07:00.992Z,48.03
2019-02-06T06:09:33.303Z,49.87
2019-02-06T06:12:03.847Z,50.83
2019-02-06T06:14:34.337Z,50.03
2019-02-06T06:17:07.501Z,47.83
2019-02-06T06:19:38.348Z,50.00
2019-02-06T06:22:09.002Z,49.87
2019-02-06T06:24:39.634Z,50.97
2019-02-06T06:27:10.552Z,50.83
2019-02-06T06:29:40.995Z,49.33
2019-02-06T06:32:11.511Z,50.50
2019-02-06T06:34:42.251Z,49.27
2019-02-06T06:37:12.603Z,51.43
2019-02-06T06:39:42.998Z,49.03
2019-02-06T06:42:13.736Z,48.10
2019-02-06T06:44:44.249Z,49.93
2019-02-06T06:47:14.626Z,49.42
2019-02-06T06:49:45.244Z,50.37
2019-02-06T06:52:15.731Z,49.70
2019-02-06T06:54:46.589Z,52.47
2019-02-06T06:57:17.201Z,51.27
2019-02-06T06:59:47.656Z,50.53
2019-02-06T07:02:18.388Z,51.10
2019-02-06T07:04:48.853Z,51.50
2019-02-06T07:07:19.316Z,51.43
2019-02-06T07:09:50.174Z,52.40
2019-02-06T07:12:20.584Z,54.55
2019-02-06T07:14:51.053Z,52.67
2019-02-06T07:17:21.804Z,51.70
2019-02-06T07:19:52.397Z,51.33
2019-02-06T07:22:22.912Z,52.77
2019-02-06T07:24:53.614Z,53.33
2019-02-06T07:27:23.990Z,52.60
2019-02-06T07:29:54.813Z,55.47
2019-02-06T07:32:25.170Z,57.07
2019-02-06T07:34:55.949Z,59.13
2019-02-06T07:37:26.528Z,60.13
2019-02-06T07:39:56.927Z,60.13
2019-02-06T07:42:27.557Z,59.15
2019-02-06T07:44:58.290Z,57.10
2019-02-06T07:47:28.787Z,56.93
2019-02-06T07:49:59.308Z,58.40
2019-02-06T07:52:29.656Z,60.13
2019-02-06T07:55:00.064Z,58.97
2019-02-06T07:57:30.517Z,58.10
2019-02-06T08:00:00.916Z,57.50
2019-02-06T08:02:31.363Z,57.07
2019-02-06T08:05:02.046Z,58.23
2019-02-06T08:07:32.471Z,55.47
2019-02-06T08:10:02.949Z,55.37
2019-02-06T08:12:34.026Z,53.97
2019-02-06T08:15:05.158Z,54.80
2019-02-06T08:17:36.172Z,55.37
2019-02-06T08:20:07.746Z,52.23
2019-02-06T08:22:38.187Z,51.93
2019-02-06T08:25:08.967Z,51.57
2019-02-06T08:27:39.423Z,54.67
2019-02-06T08:30:17.323Z,54.35
2019-02-06T08:32:47.855Z,54.40
2019-02-06T08:35:18.262Z,55.33
2019-02-06T08:37:50.150Z,54.90
2019-02-06T08:40:20.982Z,54.03
2019-02-06T08:42:53.311Z,54.20
2019-02-06T08:45:25.003Z,54.73
2019-02-06T08:47:55.549Z,56.23
2019-02-06T08:50:26.663Z,53.77
2019-02-06T08:52:57.245Z,52.73
2019-02-06T08:55:29.212Z,53.03
2019-02-06T08:57:59.989Z,53.17
2019-02-06T09:00:33.306Z,53.13
2019-02-06T09:03:04.715Z,50.10
2019-02-06T09:05:35.347Z,50.00
2019-02-06T09:08:06.355Z,52.00
2019-02-06T09:10:37.197Z,50.03
2019-02-06T09:13:08.189Z,47.48
2019-02-06T09:15:40.680Z,47.43
2019-02-06T09:18:13.070Z,46.80
2019-02-06T09:20:44.228Z,47.33
2019-02-06T09:23:16.050Z,46.40
2019-02-06T09:25:46.859Z,43.73
2019-02-06T09:28:17.344Z,41.15
2019-02-06T09:30:48.216Z,41.07
2019-02-06T09:33:19.068Z,41.68
2019-02-06T09:35:49.589Z,42.43
2019-02-06T09:38:20.191Z,39.25
2019-02-06T09:40:50.980Z,40.33
2019-02-06T09:43:21.458Z,40.05
2019-02-06T09:45:52.392Z,38.03
2019-02-06T09:48:23.973Z,38.83
2019-02-06T09:50:55.105Z,38.20
2019-02-06T09:53:25.767Z,36.93
2019-02-06T09:55:56.844Z,37.40
2019-02-06T09:58:29.520Z,38.73
2019-02-06T10:01:00.230Z,35.37
2019-02-06T10:03:32.750Z,37.63
2019-02-06T10:06:03.330Z,36.30
2019-02-06T10:08:35.234Z,34.67
2019-02-06T10:11:06.751Z,35.33
2019-02-06T10:13:37.593Z,36.67
2019-02-06T10:16:10.051Z,36.97
2019-02-06T10:18:40.805Z,37.88
2019-02-06T10:21:11.498Z,40.33
2019-02-06T10:23:41.996Z,39.07
2019-02-06T10:26:13.430Z,41.70
2019-02-06T10:28:44.431Z,43.77
2019-02-06T10:31:15.272Z,42.17
2019-02-06T10:33:46.043Z,43.23
2019-02-06T10:36:16.771Z,41.92
2019-02-06T10:38:47.517Z,41.23
2019-02-06T10:41:19.527Z,42.00
2019-02-06T10:43:51.518Z,40.77
2019-02-06T10:46:23.560Z,41.95
2019-02-06T10:48:54.137Z,42.53
2019-02-06T10:51:25.116Z,39.42
2019-02-06T10:53:55.693Z,44.33
2019-02-06T10:56:26.717Z,42.87
2019-02-06T10:58:57.571Z,43.57
2019-02-06T11:01:28.616Z,42.50
2019-02-06T11:04:00.468Z,39.80
2019-02-06T11:06:30.916Z,39.67
2019-02-06T11:09:04.166Z,39.23
2019-02-06T11:11:35.200Z,38.27
2019-02-06T11:14:05.949Z,39.18
2019-02-06T11:16:37.619Z,37.37
2019-02-06T11:19:09.415Z,35.00
2019-02-06T11:21:41.257Z,34.23
2019-02-06T11:24:11.594Z,34.50
2019-02-06T11:26:42.792Z,34.27
2019-02-06T11:29:13.322Z,33.70
2019-02-06T11:31:44.349Z,30.53
2019-02-06T11:34:15.099Z,30.60
2019-02-06T11:36:45.639Z,29.25
2019-02-06T11:39:24.350Z,27.53
2019-02-06T11:41:55.039Z,29.35
2019-02-06T11:44:25.516Z,28.32
2019-02-06T11:46:56.257Z,28.73
2019-02-06T11:49:32.234Z,27.07
2019-02-06T11:52:02.787Z,26.40
2019-02-06T11:54:34.362Z,26.87
2019-02-06T11:57:07.115Z,26.83
2019-02-06T11:59:39.065Z,28.37
2019-02-06T12:02:09.584Z,25.50
2019-02-06T12:04:40.541Z,25.35
2019-02-06T12:07:11.180Z,25.57
2019-02-06T12:09:41.937Z,26.73
2019-02-06T12:12:12.998Z,30.17
2019-02-06T12:14:43.709Z,27.77
2019-02-06T12:17:14.191Z,27.50
2019-02-06T12:19:46.461Z,27.58
2019-02-06T12:22:19.508Z,25.57
2019-02-06T12:24:51.726Z,24.13
2019-02-06T12:27:22.112Z,19.43
2019-02-06T12:29:53.108Z,20.37
2019-02-06T12:32:23.458Z,21.90
2019-02-06T12:34:54.020Z,19.60
2019-02-06T12:37:24.835Z,20.87
2019-02-06T12:39:55.981Z,21.10
2019-02-06T12:42:26.754Z,18.77
2019-02-06T12:44:59.090Z,19.70
2019-02-06T12:47:29.872Z,20.27
2019-02-06T12:50:00.412Z,20.33
2019-02-06T12:52:31.186Z,19.50
2019-02-06T12:55:03.067Z,20.10
2019-02-06T12:57:37.129Z,18.13
2019-02-06T13:00:10.566Z,17.97
2019-02-06T13:02:43.375Z,18.77
2019-02-06T13:05:14.418Z,18.85
2019-02-06T13:07:45.097Z,18.80
2019-02-06T13:10:16.414Z,18.73
2019-02-06T13:12:49.045Z,16.60
2019-02-06T13:15:19.492Z,13.10
2019-02-06T13:17:50.435Z,13.53
2019-02-06T13:20:24.305Z,12.70
2019-02-06T13:22:55.383Z,16.83
2019-02-06T13:25:25.948Z,15.47
2019-02-06T13:27:56.416Z,15.40
2019-02-06T13:30:29.276Z,16.23
2019-02-06T13:33:00.175Z,16.57
2019-02-06T13:35:32.449Z,13.10
2019-02-06T13:38:03.414Z,13.03
2019-02-06T13:40:45.240Z,12.83
2019-02-06T13:43:08.882Z,14.90
2019-02-06T13:45:43.148Z,13.50
2019-02-06T13:48:14.402Z,14.45
2019-02-06T13:50:45.229Z,14.67
2019-02-06T13:53:15.922Z,14.03
2019-02-06T13:55:46.571Z,16.13
2019-02-06T13:58:20.409Z,14.60
2019-02-06T14:00:52.158Z,12.97
2019-02-06T14:03:21.338Z,11.68
2019-02-06T14:05:52.077Z,11.33
2019-02-06T14:08:22.823Z,11.40
2019-02-06T14:11:00.117Z,11.23
2019-02-06T14:13:25.789Z,10.77
2019-02-06T14:15:56.485Z,10.10
2019-02-06T14:18:27.191Z,9.87
2019-02-06T14:20:57.718Z,9.77
2019-02-06T14:23:50.471Z,9.83
2019-02-06T14:26:48.042Z,9.30
2019-02-06T14:30:08.968Z,10.67
2019-02-06T14:33:45.314Z,9.90
2019-02-06T14:36:51.509Z,10.37
2019-02-06T14:39:48.853Z,8.60
2019-02-06T14:42:48.566Z,10.13
2019-02-06T14:45:59.232Z,9.63
2019-02-06T14:49:09.755Z,8.20
2019-02-06T14:52:16.577Z,8.30
2019-02-06T14:55:30.125Z,9.33
2019-02-06T14:58:39.120Z,9.20
2019-02-06T15:01:34.796Z,9.50
2019-02-06T15:04:44.310Z,10.57
2019-02-06T15:08:08.152Z,10.37
2019-02-06T15:10:59.729Z,10.35
2019-02-06T15:14:11.721Z,11.33
2019-02-06T15:17:19.464Z,11.37
2019-02-06T15:20:22.673Z,11.70
2019-02-06T15:23:38.070Z,10.73
2019-02-06T15:26:49.517Z,21.63
2019-02-06T15:29:33.348Z,29.32
2019-02-06T15:32:37.237Z,37.60
2019-02-06T15:36:01.969Z,34.70
2019-02-06T15:39:01.608Z,14.97
2019-02-06T15:42:15.126Z,13.28
2019-02-06T15:45:15.222Z,14.27
2019-02-06T15:47:54.631Z,15.73
2019-02-06T15:50:56.797Z,14.50
2019-02-06T15:54:02.836Z,14.13
2019-02-06T15:57:01.018Z,11.77
2019-02-06T16:00:15.104Z,16.23
2019-02-06T16:03:13.799Z,12.80
2019-02-06T16:06:32.862Z,12.27
2019-02-06T16:09:56.567Z,15.40
2019-02-06T16:12:56.047Z,23.63
2019-02-06T16:15:47.321Z,24.53
2019-02-06T16:18:49.158Z,27.30
2019-02-06T16:21:53.823Z,25.00
2019-02-06T16:24:53.185Z,26.13
2019-02-06T16:27:36.454Z,23.30
2019-02-06T16:30:58.438Z,25.53
2019-02-06T16:34:12.397Z,25.53
2019-02-06T16:36:52.894Z,28.77
2019-02-06T16:40:07.652Z,29.50
2019-02-06T16:43:02.620Z,30.37
2019-02-06T16:46:19.830Z,20.63
2019-02-06T16:49:30.912Z,22.37
2019-02-06T16:52:12.181Z,21.73
2019-02-06T16:55:21.901Z,28.73
2019-02-06T16:58:29.433Z,21.47
2019-02-06T17:01:40.092Z,15.83
2019-02-06T17:04:41.752Z,15.00
2019-02-06T17:07:36.191Z,14.50
2019-02-06T17:10:41.019Z,12.60
2019-02-06T17:13:46.585Z,13.28
2019-02-06T17:16:34.791Z,14.90
2019-02-06T17:19:53.306Z,14.80
2019-02-06T17:22:41.112Z,15.65
2019-02-06T17:25:49.218Z,14.55
2019-02-06T17:28:47.779Z,22.50
2019-02-06T17:31:56.786Z,22.42
2019-02-06T17:35:08.859Z,21.60
2019-02-06T17:38:14.534Z,22.47
2019-02-06T17:41:27.868Z,21.97
2019-02-06T17:44:31.138Z,19.87
2019-02-06T17:47:51.679Z,22.27
2019-02-06T17:50:48.858Z,23.13
2019-02-06T17:53:34.598Z,22.63
2019-02-06T17:56:06.413Z,25.50
2019-02-06T17:58:40.466Z,24.57
2019-02-06T18:01:22.062Z,25.83
2019-02-06T18:03:56.284Z,21.97
2019-02-06T18:06:39.682Z,25.30
2019-02-06T18:09:29.535Z,28.90
2019-02-06T18:12:28.862Z,27.77
2019-02-06T18:15:27.341Z,27.37
2019-02-06T18:18:25.705Z,27.17
2019-02-06T18:21:24.618Z,29.13
2019-02-06T18:24:20.475Z,31.40
2019-02-06T18:27:17.190Z,37.13
2019-02-06T18:30:02.485Z,41.70
2019-02-06T18:32:46.063Z,49.13
2019-02-06T18:35:17.655Z,48.35
2019-02-06T18:37:50.331Z,50.43
2019-02-06T18:40:22.967Z,47.80
2019-02-06T18:42:53.816Z,49.10
2019-02-06T18:45:27.802Z,46.30
2019-02-06T18:48:03.001Z,52.83
2019-02-06T18:50:36.874Z,52.63
2019-02-06T18:53:08.439Z,54.87
2019-02-06T18:55:39.287Z,57.77
2019-02-06T18:58:10.840Z,58.90
2019-02-06T19:00:42.114Z,60.70
2019-02-06T19:03:16.818Z,65.03
2019-02-06T19:05:48.129Z,66.47
2019-02-06T19:08:19.107Z,65.10
2019-02-06T19:10:50.821Z,64.10
2019-02-06T19:13:21.633Z,72.43
2019-02-06T19:15:56.489Z,68.53
2019-02-06T19:18:26.390Z,71.00
2019-02-06T19:20:57.495Z,72.97
2019-02-06T19:23:50.184Z,70.60
2019-02-06T19:26:20.649Z,69.30
2019-02-06T19:28:51.118Z,78.53
2019-02-06T19:31:21.721Z,70.50
2019-02-06T19:33:53.094Z,71.10
2019-02-06T19:36:24.654Z,76.85
2019-02-06T19:38:55.300Z,75.17
2019-02-06T19:41:25.745Z,72.80
2019-02-06T19:43:56.315Z,70.53
2019-02-06T19:46:26.784Z,70.47
2019-02-06T19:48:58.016Z,69.60
2019-02-06T19:51:28.813Z,65.03
2019-02-06T19:53:59.268Z,63.33
2019-02-06T19:56:30.223Z,66.10
2019-02-06T19:59:01.141Z,66.62
2019-02-06T20:01:31.794Z,70.93
2019-02-06T20:04:02.448Z,80.50
2019-02-06T20:06:34.503Z,82.13
2019-02-06T20:09:13.167Z,74.63
2019-02-06T20:11:43.683Z,76.00
2019-02-06T20:14:14.244Z,77.35
2019-02-06T20:16:44.772Z,78.07
2019-02-06T20:19:15.139Z,78.00
2019-02-06T20:21:46.067Z,82.23
2019-02-06T20:24:16.598Z,80.92
2019-02-06T20:26:47.363Z,83.03
2019-02-06T20:29:18.074Z,88.58
2019-02-06T20:31:49.119Z,84.65
2019-02-06T20:34:19.795Z,83.92
2019-02-06T20:36:50.657Z,84.07
2019-02-06T20:39:21.127Z,91.63
2019-02-06T20:41:51.625Z,92.50
2019-02-06T20:44:22.114Z,87.60
2019-02-06T20:46:55.751Z,93.03
2019-02-06T20:49:25.120Z,93.97
2019-02-06T20:51:56.093Z,91.40
2019-02-06T20:54:26.716Z,92.63
2019-02-06T20:56:58.367Z,92.07
2019-02-06T20:59:28.926Z,92.27
2019-02-06T21:01:59.736Z,89.67
2019-02-06T21:04:30.310Z,89.50
2019-02-06T21:07:00.779Z,94.47
2019-02-06T21:09:31.184Z,91.03
2019-02-06T21:12:01.909Z,98.17
2019-02-06T21:14:32.647Z,97.80
2019-02-06T21:17:03.213Z,99.83
2019-02-06T21:19:33.881Z,93.73
2019-02-06T21:22:04.435Z,98.73
2019-02-06T21:24:34.945Z,92.87
2019-02-06T21:27:06.738Z,92.63
2019-02-06T21:29:37.530Z,93.83
2019-02-06T21:32:09.494Z,89.40
2019-02-06T21:34:40.145Z,83.27
2019-02-06T21:37:10.531Z,83.13
2019-02-06T21:39:40.981Z,83.13
2019-02-06T21:42:11.426Z,77.77
2019-02-06T21:44:41.996Z,85.00
2019-02-06T21:47:12.597Z,80.63
2019-02-06T21:49:43.215Z,82.80
2019-02-06T21:52:14.095Z,84.93
2019-02-06T21:54:45.867Z,88.60
2019-02-06T21:57:16.513Z,88.92
2019-02-06T21:59:48.457Z,84.40
2019-02-06T22:02:18.856Z,97.82
2019-02-06T22:04:49.220Z,85.07
2019-02-06T22:07:19.814Z,86.43
2019-02-06T22:09:50.210Z,80.40
2019-02-06T22:12:21.163Z,75.62
2019-02-06T22:14:51.769Z,77.63
2019-02-06T22:17:22.207Z,72.07
2019-02-06T22:19:52.690Z,77.10
2019-02-06T22:22:23.491Z,79.65
2019-02-06T22:24:54.354Z,77.80
2019-02-06T22:27:25.531Z,77.83
2019-02-06T22:29:58.519Z,82.00
2019-02-06T22:32:29.135Z,81.90
2019-02-06T22:35:00.443Z,81.40
2019-02-06T22:37:31.207Z,86.50
2019-02-06T22:40:02.535Z,82.83
2019-02-06T22:42:33.252Z,89.30
2019-02-06T22:45:04.305Z,93.27
2019-02-06T22:47:34.926Z,92.53
2019-02-06T22:50:09.051Z,91.78
2019-02-06T22:52:40.617Z,89.70
2019-02-06T22:55:12.412Z,85.53
2019-02-06T22:57:43.906Z,86.50
2019-02-06T23:00:46.916Z,84.37
2019-02-06T23:03:24.674Z,86.43
2019-02-06T23:05:55.202Z,85.13
2019-02-06T23:08:28.012Z,84.10
2019-02-06T23:10:58.967Z,85.33
2019-02-06T23:13:29.604Z,84.30
2019-02-06T23:16:00.041Z,85.30
2019-02-06T23:18:30.402Z,84.53
2019-02-06T23:21:01.952Z,81.45
2019-02-06T23:23:32.314Z,80.93
2019-02-06T23:26:03.042Z,80.27
2019-02-06T23:28:34.154Z,79.33
2019-02-06T23:31:05.647Z,75.73
2019-02-06T23:33:38.077Z,74.03
2019-02-06T23:36:10.083Z,77.27
2019-02-06T23:38:40.944Z,77.45
2019-02-06T23:41:11.468Z,75.43
2019-02-06T23:43:43.308Z,79.27
2019-02-06T23:46:13.714Z,79.77
2019-02-06T23:48:44.470Z,75.30
2019-02-06T23:51:15.252Z,74.30
2019-02-06T23:53:46.215Z,75.13
2019-02-06T23:56:16.891Z,73.35
2019-02-06T23:58:47.610Z,70.37
